createdAt,value
2018-09-24T00:02:25.755Z,11.90
2018-09-24T00:04:53.957Z,11.90
2018-09-24T00:07:22.145Z,12.00
2018-09-24T00:09:50.308Z,12.00
2018-09-24T00:12:18.476Z,12.00
2018-09-24T00:14:46.635Z,12.00
2018-09-24T00:17:14.810Z,12.10
2018-09-24T00:19:42.971Z,12.10
2018-09-24T00:22:11.146Z,12.00
2018-09-24T00:24:39.503Z,11.90
2018-09-24T00:27:07.695Z,11.90
2018-09-24T00:29:35.891Z,11.90
2018-09-24T00:32:04.059Z,11.90
2018-09-24T00:34:32.226Z,11.90
2018-09-24T00:37:00.429Z,11.90
2018-09-24T00:39:28.598Z,11.80
2018-09-24T00:41:56.763Z,11.80
2018-09-24T00:44:24.940Z,11.80
2018-09-24T00:46:53.100Z,11.80
2018-09-24T00:49:21.266Z,11.80
2018-09-24T00:51:49.422Z,11.70
2018-09-24T00:54:17.595Z,11.70
2018-09-24T00:56:45.751Z,11.70
2018-09-24T00:59:13.921Z,11.60
2018-09-24T01:01:42.627Z,11.60
2018-09-24T01:04:10.819Z,11.50
2018-09-24T01:06:39.327Z,11.50
2018-09-24T01:09:09.191Z,11.50
2018-09-24T01:11:37.403Z,11.50
2018-09-24T01:14:05.675Z,11.40
2018-09-24T01:16:33.872Z,11.40
2018-09-24T01:19:02.299Z,11.30
2018-09-24T01:21:30.510Z,11.30
2018-09-24T01:23:58.715Z,11.30
2018-09-24T01:26:26.906Z,11.20
2018-09-24T01:28:55.108Z,11.20
2018-09-24T01:31:23.291Z,11.30
2018-09-24T01:33:51.494Z,11.30
2018-09-24T01:36:19.695Z,11.20
2018-09-24T01:38:47.892Z,11.20
2018-09-24T01:41:16.114Z,11.20
2018-09-24T01:43:44.330Z,11.30
2018-09-24T01:46:12.549Z,11.20
2018-09-24T01:48:40.740Z,11.20
2018-09-24T01:51:08.934Z,11.20
2018-09-24T01:53:37.123Z,11.20
2018-09-24T01:56:05.679Z,11.20
2018-09-24T01:58:36.683Z,11.10
2018-09-24T02:01:05.211Z,11.00
2018-09-24T02:03:34.396Z,11.00
2018-09-24T02:06:03.190Z,10.90
2018-09-24T02:08:31.570Z,10.90
2018-09-24T02:11:00.072Z,10.90
2018-09-24T02:13:28.242Z,10.80
2018-09-24T02:15:56.460Z,10.90
2018-09-24T02:18:24.636Z,10.70
2018-09-24T02:20:52.799Z,10.70
2018-09-24T02:23:20.960Z,10.70
2018-09-24T02:25:49.124Z,10.70
2018-09-24T02:28:17.290Z,10.70
2018-09-24T02:30:45.463Z,10.80
2018-09-24T02:33:13.802Z,10.70
2018-09-24T02:35:48.035Z,10.70
2018-09-24T02:38:16.803Z,10.70
2018-09-24T02:40:44.963Z,10.60
2018-09-24T02:43:13.135Z,10.60
2018-09-24T02:45:41.315Z,10.60
2018-09-24T02:48:09.529Z,10.60
2018-09-24T02:50:38.909Z,10.70
2018-09-24T02:53:08.642Z,10.60
2018-09-24T02:55:36.813Z,10.60
2018-09-24T02:58:04.997Z,10.60
2018-09-24T03:00:33.155Z,10.60
2018-09-24T03:03:07.766Z,10.60
2018-09-24T03:05:35.958Z,10.60
2018-09-24T03:08:07.362Z,10.60
2018-09-24T03:10:35.846Z,10.60
2018-09-24T03:13:04.055Z,10.60
2018-09-24T03:15:36.609Z,10.60
2018-09-24T03:18:05.196Z,10.60
2018-09-24T03:20:37.750Z,10.60
2018-09-24T03:23:06.347Z,10.60
2018-09-24T03:25:34.815Z,10.60
2018-09-24T03:28:03.013Z,10.50
2018-09-24T03:30:33.928Z,10.50
2018-09-24T03:33:02.724Z,10.50
2018-09-24T03:35:31.626Z,10.50
2018-09-24T03:37:59.827Z,10.50
2018-09-24T03:40:28.019Z,10.50
2018-09-24T03:42:57.020Z,10.50
2018-09-24T03:45:25.539Z,10.50
2018-09-24T03:47:53.761Z,10.50
2018-09-24T03:50:22.087Z,10.50
2018-09-24T03:52:50.578Z,10.40
2018-09-24T03:55:19.042Z,10.50
2018-09-24T03:57:47.236Z,10.50
2018-09-24T04:00:15.439Z,10.50
2018-09-24T04:02:43.635Z,10.40
2018-09-24T04:05:17.167Z,10.40
2018-09-24T04:07:50.866Z,10.40
2018-09-24T04:10:24.543Z,10.40
2018-09-24T04:12:58.099Z,10.30
2018-09-24T04:15:31.684Z,10.30
2018-09-24T04:18:05.709Z,10.20
2018-09-24T04:20:39.516Z,10.20
2018-09-24T04:23:13.519Z,10.20
2018-09-24T04:25:47.218Z,10.10
2018-09-24T04:28:21.026Z,10.10
2018-09-24T04:30:54.526Z,10.10
2018-09-24T04:33:28.232Z,10.10
2018-09-24T04:36:01.785Z,10.10
2018-09-24T04:38:35.466Z,10.10
2018-09-24T04:41:09.159Z,10.10
2018-09-24T04:43:42.847Z,10.10
2018-09-24T04:46:16.419Z,10.20
2018-09-24T04:48:50.225Z,10.20
2018-09-24T04:51:23.832Z,10.20
2018-09-24T04:53:57.507Z,10.20
2018-09-24T04:56:31.193Z,10.20
2018-09-24T04:59:04.881Z,10.10
2018-09-24T05:01:38.397Z,10.00
2018-09-24T05:04:11.855Z,10.10
2018-09-24T05:06:45.483Z,10.10
2018-09-24T05:09:19.335Z,10.20
2018-09-24T05:11:53.008Z,10.20
2018-09-24T05:14:26.642Z,10.20
2018-09-24T05:17:00.211Z,10.20
2018-09-24T05:19:33.938Z,10.20
2018-09-24T05:22:07.504Z,10.10
2018-09-24T05:24:41.037Z,10.10
2018-09-24T05:27:14.765Z,10.10
2018-09-24T05:29:48.858Z,10.10
2018-09-24T05:32:22.729Z,10.20
2018-09-24T05:34:56.334Z,10.20
2018-09-24T05:37:30.063Z,10.20
2018-09-24T05:40:03.604Z,10.20
2018-09-24T05:42:37.167Z,10.40
2018-09-24T05:45:11.627Z,10.40
2018-09-24T05:47:45.038Z,10.30
2018-09-24T05:50:18.698Z,10.30
2018-09-24T05:52:52.484Z,10.30
2018-09-24T05:55:26.215Z,10.40
2018-09-24T05:57:59.814Z,10.40
2018-09-24T06:00:33.394Z,10.30
2018-09-24T06:03:06.950Z,10.30
2018-09-24T06:05:40.509Z,10.30
2018-09-24T06:08:13.955Z,10.30
2018-09-24T06:10:47.724Z,10.20
2018-09-24T06:13:21.236Z,10.20
2018-09-24T06:15:54.775Z,10.10
2018-09-24T06:18:28.491Z,10.20
2018-09-24T06:21:02.207Z,10.20
2018-09-24T06:23:35.933Z,10.10
2018-09-24T06:26:09.707Z,10.30
2018-09-24T06:28:43.430Z,10.30
2018-09-24T06:31:17.119Z,10.20
2018-09-24T06:33:50.711Z,10.30
2018-09-24T06:36:24.243Z,10.20
2018-09-24T06:38:57.919Z,10.30
2018-09-24T06:41:31.607Z,10.50
2018-09-24T06:44:05.183Z,10.50
2018-09-24T06:46:38.782Z,10.40
2018-09-24T06:49:12.814Z,10.40
2018-09-24T06:51:46.391Z,10.40
2018-09-24T06:54:19.999Z,10.40
2018-09-24T06:56:53.568Z,10.40
2018-09-24T06:59:27.273Z,10.20
2018-09-24T07:02:01.044Z,10.10
2018-09-24T07:04:34.730Z,10.20
2018-09-24T07:07:08.286Z,10.40
2018-09-24T07:09:41.718Z,10.60
2018-09-24T07:12:15.252Z,10.60
2018-09-24T07:14:48.795Z,10.80
2018-09-24T07:17:22.626Z,10.70
2018-09-24T07:19:56.035Z,10.80
2018-09-24T07:22:29.725Z,10.80
2018-09-24T07:25:03.443Z,10.80
2018-09-24T07:27:37.036Z,10.70
2018-09-24T07:30:10.756Z,10.80
2018-09-24T07:32:44.352Z,10.70
2018-09-24T07:35:18.031Z,10.80
2018-09-24T07:37:51.554Z,10.80
2018-09-24T07:40:25.256Z,10.80
2018-09-24T07:42:58.835Z,10.70
2018-09-24T07:45:32.466Z,10.70
2018-09-24T07:48:06.167Z,10.60
2018-09-24T07:50:39.819Z,10.70
2018-09-24T07:53:13.953Z,10.80
2018-09-24T07:55:47.439Z,10.80
2018-09-24T07:58:21.160Z,10.90
2018-09-24T08:00:54.894Z,11.00
2018-09-24T08:03:28.547Z,11.00
2018-09-24T08:06:02.143Z,11.00
2018-09-24T08:08:35.860Z,10.90
2018-09-24T08:11:09.687Z,10.90
2018-09-24T08:13:43.490Z,10.90
2018-09-24T08:16:17.084Z,11.10
2018-09-24T08:18:50.595Z,11.10
2018-09-24T08:21:24.287Z,11.20
2018-09-24T08:23:57.975Z,11.30
2018-09-24T08:26:31.542Z,11.30
2018-09-24T08:29:05.230Z,11.20
2018-09-24T08:31:38.893Z,11.20
2018-09-24T08:34:12.517Z,11.10
2018-09-24T08:36:46.187Z,11.30
2018-09-24T08:39:19.742Z,11.50
2018-09-24T08:41:53.346Z,11.70
2018-09-24T08:44:26.970Z,11.90
2018-09-24T08:47:00.474Z,11.90
2018-09-24T08:49:34.218Z,12.10
2018-09-24T08:52:07.864Z,12.30
2018-09-24T08:54:41.311Z,12.20
2018-09-24T08:57:15.078Z,12.30
2018-09-24T08:59:48.552Z,12.20
2018-09-24T09:02:22.266Z,12.00
2018-09-24T09:04:55.883Z,12.20
2018-09-24T09:07:29.574Z,12.30
2018-09-24T09:10:03.231Z,12.20
2018-09-24T09:12:36.886Z,12.20
2018-09-24T09:15:10.499Z,12.20
2018-09-24T09:17:44.191Z,12.10
2018-09-24T09:20:17.761Z,12.10
2018-09-24T09:22:51.470Z,12.10
2018-09-24T09:25:25.183Z,12.00
2018-09-24T09:27:58.938Z,12.10
2018-09-24T09:30:32.567Z,12.40
2018-09-24T09:33:06.238Z,12.70
2018-09-24T09:35:39.999Z,12.70
2018-09-24T09:38:13.550Z,12.80
2018-09-24T09:40:47.416Z,12.90
2018-09-24T09:43:21.103Z,12.70
2018-09-24T09:45:54.776Z,12.80
2018-09-24T09:48:28.548Z,13.10
2018-09-24T09:51:02.151Z,13.20
2018-09-24T09:53:35.865Z,13.30
2018-09-24T09:56:09.407Z,13.40
2018-09-24T09:58:43.106Z,13.30
2018-09-24T10:01:16.787Z,13.20
2018-09-24T10:03:50.512Z,13.30
2018-09-24T10:06:24.094Z,13.50
2018-09-24T10:08:57.814Z,13.70
2018-09-24T10:11:31.561Z,14.10
2018-09-24T10:14:05.261Z,14.30
2018-09-24T10:16:39.027Z,14.40
2018-09-24T10:19:12.755Z,14.10
2018-09-24T10:21:46.391Z,13.80
2018-09-24T10:24:20.116Z,13.50
2018-09-24T10:26:54.043Z,13.40
2018-09-24T10:29:27.624Z,13.00
2018-09-24T10:32:01.203Z,13.00
2018-09-24T10:34:34.950Z,13.10
2018-09-24T10:37:08.489Z,13.30
2018-09-24T10:39:42.118Z,13.70
2018-09-24T10:42:15.719Z,14.20
2018-09-24T10:44:49.367Z,14.60
2018-09-24T10:47:22.918Z,14.50
2018-09-24T10:49:56.359Z,14.10
2018-09-24T10:52:29.956Z,14.00
2018-09-24T10:55:03.508Z,13.80
2018-09-24T10:57:37.138Z,14.00
2018-09-24T11:00:10.939Z,14.30
2018-09-24T11:02:44.509Z,14.40
2018-09-24T11:05:18.180Z,14.60
2018-09-24T11:07:51.602Z,14.40
2018-09-24T11:10:25.434Z,14.20
2018-09-24T11:12:59.138Z,14.20
2018-09-24T11:15:32.778Z,14.20
2018-09-24T11:18:06.395Z,14.00
2018-09-24T11:20:39.920Z,14.50
2018-09-24T11:23:13.499Z,14.50
2018-09-24T11:25:47.196Z,14.50
2018-09-24T11:28:20.859Z,14.40
2018-09-24T11:30:54.285Z,14.70
2018-09-24T11:33:27.858Z,15.10
2018-09-24T11:36:01.543Z,15.60
2018-09-24T11:38:35.143Z,15.80
2018-09-24T11:41:08.870Z,15.40
2018-09-24T11:43:42.443Z,15.30
2018-09-24T11:46:16.131Z,15.20
2018-09-24T11:48:49.548Z,15.00
2018-09-24T11:51:23.247Z,15.40
2018-09-24T11:53:56.819Z,15.50
2018-09-24T11:56:30.747Z,15.00
2018-09-24T11:59:04.658Z,14.80
2018-09-24T12:01:38.374Z,15.10
2018-09-24T12:04:11.937Z,15.50
2018-09-24T12:06:45.669Z,16.00
2018-09-24T12:09:19.565Z,16.10
2018-09-24T12:11:53.282Z,16.40
2018-09-24T12:14:26.728Z,16.60
2018-09-24T12:17:00.459Z,16.80
2018-09-24T12:19:34.030Z,16.80
2018-09-24T12:22:07.531Z,16.60
2018-09-24T12:24:41.139Z,16.00
2018-09-24T12:27:14.768Z,16.30
2018-09-24T12:29:48.723Z,16.20
2018-09-24T12:32:22.499Z,15.90
2018-09-24T12:34:56.064Z,15.70
2018-09-24T12:37:29.810Z,15.50
2018-09-24T12:40:03.538Z,15.20
2018-09-24T12:42:37.167Z,15.80
2018-09-24T12:45:10.775Z,16.50
2018-09-24T12:47:44.172Z,16.60
2018-09-24T12:50:17.803Z,16.80
2018-09-24T12:52:51.483Z,17.30
2018-09-24T12:55:25.058Z,17.60
2018-09-24T12:57:58.707Z,17.70
2018-09-24T13:00:32.377Z,17.40
2018-09-24T13:03:06.043Z,16.80
2018-09-24T13:05:39.611Z,17.00
2018-09-24T13:08:13.615Z,17.40
2018-09-24T13:10:47.183Z,17.60
2018-09-24T13:13:20.911Z,17.60
2018-09-24T13:15:54.443Z,17.00
2018-09-24T13:18:28.190Z,16.80
2018-09-24T13:21:01.937Z,16.90
2018-09-24T13:23:35.623Z,17.20
2018-09-24T13:26:09.183Z,17.00
2018-09-24T13:28:42.779Z,16.70
2018-09-24T13:31:16.486Z,16.40
2018-09-24T13:33:50.044Z,16.70
2018-09-24T13:36:23.696Z,16.50
2018-09-24T13:38:57.446Z,16.40
2018-09-24T13:41:31.059Z,16.20
2018-09-24T13:44:04.607Z,15.90
2018-09-24T13:46:38.300Z,15.80
2018-09-24T13:49:11.875Z,15.60
2018-09-24T13:51:45.518Z,15.40
2018-09-24T13:54:19.127Z,15.20
2018-09-24T13:56:52.823Z,15.10
2018-09-24T13:59:26.502Z,15.00
2018-09-24T14:02:00.206Z,15.10
2018-09-24T14:04:33.791Z,15.00
2018-09-24T14:07:07.346Z,15.20
2018-09-24T14:09:40.748Z,15.40
2018-09-24T14:12:14.405Z,15.70
2018-09-24T14:14:54.981Z,15.50
2018-09-24T14:17:28.532Z,15.20
2018-09-24T14:20:01.930Z,15.20
2018-09-24T14:22:35.565Z,14.90
2018-09-24T14:25:09.059Z,15.10
2018-09-24T14:27:42.644Z,15.10
2018-09-24T14:30:16.375Z,15.10
2018-09-24T14:32:50.107Z,15.00
2018-09-24T14:35:23.705Z,14.80
2018-09-24T14:37:57.252Z,14.70
2018-09-24T14:40:30.879Z,15.00
2018-09-24T14:43:04.266Z,15.40
2018-09-24T14:45:37.969Z,16.00
2018-09-24T14:48:11.639Z,16.50
2018-09-24T14:50:45.379Z,16.70
2018-09-24T14:53:18.831Z,16.60
2018-09-24T14:55:52.202Z,16.50
2018-09-24T14:58:25.786Z,16.70
2018-09-24T15:00:59.301Z,16.50
2018-09-24T15:03:32.996Z,16.30
2018-09-24T15:06:06.679Z,16.10
2018-09-24T15:08:40.254Z,15.80
2018-09-24T15:11:13.673Z,15.60
2018-09-24T15:13:47.622Z,15.50
2018-09-24T15:16:21.255Z,15.70
2018-09-24T15:18:55.015Z,15.70
2018-09-24T15:21:28.794Z,15.80
2018-09-24T15:24:02.523Z,15.80
2018-09-24T15:26:36.299Z,15.90
2018-09-24T15:29:09.895Z,15.90
2018-09-24T15:31:43.487Z,16.00
2018-09-24T15:34:17.236Z,16.10
2018-09-24T15:36:50.615Z,16.10
2018-09-24T15:39:24.115Z,16.00
2018-09-24T15:41:57.614Z,16.10
2018-09-24T15:44:31.301Z,16.10
2018-09-24T15:47:05.055Z,16.10
2018-09-24T15:49:38.798Z,16.00
2018-09-24T15:52:12.659Z,15.80
2018-09-24T15:54:46.384Z,15.80
2018-09-24T15:57:20.117Z,15.80
2018-09-24T15:59:53.774Z,15.80
2018-09-24T16:02:27.250Z,15.80
2018-09-24T16:05:00.999Z,15.80
2018-09-24T16:07:34.824Z,15.80
2018-09-24T16:10:08.490Z,15.80
2018-09-24T16:12:42.211Z,15.60
2018-09-24T16:15:15.678Z,15.50
2018-09-24T16:17:49.424Z,15.30
2018-09-24T16:20:23.140Z,15.20
2018-09-24T16:22:56.946Z,15.10
2018-09-24T16:25:30.635Z,15.00
2018-09-24T16:28:04.228Z,15.10
2018-09-24T16:30:37.793Z,15.10
2018-09-24T16:33:11.466Z,15.20
2018-09-24T16:35:45.019Z,15.00
2018-09-24T16:38:18.907Z,14.80
2018-09-24T16:40:52.507Z,14.60
2018-09-24T16:43:26.107Z,14.60
2018-09-24T16:45:59.675Z,14.50
2018-09-24T16:48:33.351Z,14.30
2018-09-24T16:51:06.919Z,14.20
2018-09-24T16:53:40.547Z,14.10
2018-09-24T16:56:14.095Z,14.10
2018-09-24T16:58:48.231Z,14.00
2018-09-24T17:01:21.954Z,13.80
2018-09-24T17:03:55.567Z,13.70
2018-09-24T17:06:29.366Z,13.70
2018-09-24T17:09:03.043Z,13.60
2018-09-24T17:11:36.645Z,13.50
2018-09-24T17:14:10.270Z,13.40
2018-09-24T17:16:43.951Z,13.30
2018-09-24T17:19:17.658Z,13.10
2018-09-24T17:21:51.331Z,12.90
2018-09-24T17:24:25.048Z,12.80
2018-09-24T17:26:58.959Z,12.60
2018-09-24T17:29:32.564Z,12.50
2018-09-24T17:32:06.144Z,12.40
2018-09-24T17:34:39.831Z,12.30
2018-09-24T17:37:13.441Z,12.20
2018-09-24T17:39:47.023Z,12.10
2018-09-24T17:42:20.563Z,12.00
2018-09-24T17:44:54.179Z,12.00
2018-09-24T17:47:27.887Z,11.90
2018-09-24T17:50:01.588Z,11.90
2018-09-24T17:52:35.394Z,11.90
2018-09-24T17:55:09.095Z,11.80
2018-09-24T17:57:42.782Z,11.70
2018-09-24T18:00:16.331Z,11.60
2018-09-24T18:02:49.941Z,11.60
2018-09-24T18:05:23.694Z,11.50
2018-09-24T18:07:57.319Z,11.40
2018-09-24T18:10:31.015Z,11.30
2018-09-24T18:13:04.698Z,11.20
2018-09-24T18:15:38.285Z,11.20
2018-09-24T18:18:12.084Z,11.20
2018-09-24T18:20:45.806Z,11.10
2018-09-24T18:23:19.492Z,11.00
2018-09-24T18:25:53.331Z,11.00
2018-09-24T18:28:27.009Z,11.00
2018-09-24T18:31:00.577Z,11.00
2018-09-24T18:33:34.251Z,10.90
2018-09-24T18:36:08.003Z,10.80
2018-09-24T18:38:41.735Z,10.80
2018-09-24T18:41:15.554Z,10.70
2018-09-24T18:43:49.163Z,10.60
2018-09-24T18:46:22.687Z,10.60
2018-09-24T18:48:56.387Z,10.50
2018-09-24T18:51:29.899Z,10.50
2018-09-24T18:54:03.593Z,10.50
2018-09-24T18:56:37.286Z,10.40
2018-09-24T18:59:10.934Z,10.40
2018-09-24T19:01:44.716Z,10.30
2018-09-24T19:04:18.435Z,10.30
2018-09-24T19:06:52.143Z,10.30
2018-09-24T19:09:25.656Z,10.20
2018-09-24T19:11:59.175Z,10.20
2018-09-24T19:14:32.915Z,10.10
2018-09-24T19:17:06.681Z,10.10
2018-09-24T19:19:40.175Z,10.00
2018-09-24T19:22:13.726Z,10.00
2018-09-24T19:24:47.588Z,10.00
2018-09-24T19:27:21.406Z,10.00
2018-09-24T19:29:54.907Z,10.00
2018-09-24T19:32:28.552Z,10.10
2018-09-24T19:35:02.347Z,10.10
2018-09-24T19:37:35.899Z,10.10
2018-09-24T19:40:09.632Z,10.00
2018-09-24T19:42:43.318Z,9.90
2018-09-24T19:45:16.901Z,9.90
2018-09-24T19:47:50.566Z,9.80
2018-09-24T19:50:24.116Z,9.70
2018-09-24T19:52:57.603Z,9.80
2018-09-24T19:55:31.236Z,9.80
2018-09-24T19:58:04.819Z,9.70
2018-09-24T20:00:38.451Z,9.70
2018-09-24T20:03:12.067Z,9.60
2018-09-24T20:05:45.753Z,9.60
2018-09-24T20:08:19.322Z,9.50
2018-09-24T20:10:52.944Z,9.50
2018-09-24T20:13:26.470Z,9.50
2018-09-24T20:15:59.900Z,9.50
2018-09-24T20:18:33.586Z,9.50
2018-09-24T20:21:07.535Z,9.40
2018-09-24T20:23:41.195Z,9.40
2018-09-24T20:26:14.858Z,9.50
2018-09-24T20:28:48.435Z,9.40
2018-09-24T20:31:22.039Z,9.40
2018-09-24T20:33:55.560Z,9.30
2018-09-24T20:36:29.076Z,9.30
2018-09-24T20:39:02.695Z,9.20
2018-09-24T20:41:36.355Z,9.20
2018-09-24T20:44:10.050Z,9.10
2018-09-24T20:46:43.731Z,9.10
2018-09-24T20:49:17.307Z,9.10
2018-09-24T20:51:50.967Z,9.10
2018-09-24T20:54:24.535Z,9.10
2018-09-24T20:56:58.155Z,9.10
2018-09-24T20:59:31.883Z,9.00
2018-09-24T21:02:05.824Z,9.00
2018-09-24T21:04:39.423Z,9.00
2018-09-24T21:07:13.143Z,8.90
2018-09-24T21:09:46.635Z,8.90
2018-09-24T21:12:20.369Z,8.90
2018-09-24T21:14:54.070Z,8.80
2018-09-24T21:17:27.770Z,8.90
2018-09-24T21:20:01.350Z,8.90
2018-09-24T21:22:35.016Z,8.90
2018-09-24T21:25:08.589Z,8.90
2018-09-24T21:27:42.300Z,9.00
2018-09-24T21:30:15.988Z,9.00
2018-09-24T21:32:49.671Z,8.80
2018-09-24T21:35:23.359Z,8.60
2018-09-24T21:37:57.059Z,8.60
2018-09-24T21:40:31.074Z,8.50
2018-09-24T21:43:04.730Z,8.60
2018-09-24T21:45:38.212Z,8.50
2018-09-24T21:48:11.891Z,8.40
2018-09-24T21:50:45.463Z,8.40
2018-09-24T21:53:19.095Z,8.40
2018-09-24T21:55:52.894Z,8.40
2018-09-24T21:58:26.565Z,8.40
2018-09-24T22:01:00.255Z,8.40
2018-09-24T22:03:33.886Z,8.40
2018-09-24T22:06:07.541Z,8.40
2018-09-24T22:08:41.195Z,8.30
2018-09-24T22:11:14.759Z,8.30
2018-09-24T22:13:48.499Z,8.30
2018-09-24T22:16:22.071Z,8.20
2018-09-24T22:18:55.734Z,8.20
2018-09-24T22:21:29.359Z,8.20
2018-09-24T22:24:03.094Z,8.20
2018-09-24T22:26:36.811Z,8.10
2018-09-24T22:29:10.471Z,8.20
2018-09-24T22:31:43.995Z,8.20
2018-09-24T22:34:17.530Z,8.10
2018-09-24T22:36:51.174Z,8.20
2018-09-24T22:39:24.866Z,8.20
2018-09-24T22:41:58.530Z,8.30
2018-09-24T22:44:32.214Z,8.10
2018-09-24T22:47:05.926Z,8.00
2018-09-24T22:49:39.619Z,8.00
2018-09-24T22:52:13.195Z,7.90
2018-09-24T22:54:46.802Z,7.90
2018-09-24T22:57:20.695Z,7.90
2018-09-24T22:59:54.436Z,7.90
2018-09-24T23:02:28.011Z,7.80
2018-09-24T23:05:01.724Z,7.80
2018-09-24T23:07:35.239Z,7.70
2018-09-24T23:10:08.932Z,7.80
2018-09-24T23:12:42.656Z,7.90
2018-09-24T23:15:16.432Z,7.80
2018-09-24T23:17:50.150Z,7.80
2018-09-24T23:20:23.787Z,7.70
2018-09-24T23:22:57.363Z,7.70
2018-09-24T23:25:31.049Z,7.70
2018-09-24T23:28:04.568Z,7.80
2018-09-24T23:30:38.251Z,7.70
2018-09-24T23:33:11.804Z,7.70
2018-09-24T23:35:45.542Z,7.60
2018-09-24T23:38:19.255Z,7.60
2018-09-24T23:40:52.943Z,7.60
2018-09-24T23:43:26.516Z,7.70
2018-09-24T23:46:00.155Z,7.60
2018-09-24T23:48:33.719Z,7.50
2018-09-24T23:51:07.350Z,7.60
2018-09-24T23:53:41.302Z,7.70
2018-09-24T23:56:14.844Z,7.70
2018-09-24T23:58:48.544Z,7.70
